createdAt,value
2019-05-30T00:00:31.968Z,20.06
2019-05-30T00:01:31.958Z,19.97
2019-05-30T00:02:31.956Z,20.00
2019-05-30T00:03:31.975Z,19.97
2019-05-30T00:04:31.935Z,19.97
2019-05-30T00:05:31.930Z,19.95
2019-05-30T00:06:31.928Z,20.00
2019-05-30T00:07:31.913Z,19.97
2019-05-30T00:08:31.921Z,20.05
2019-05-30T00:09:31.903Z,19.93
2019-05-30T00:10:31.896Z,20.02
2019-05-30T00:11:31.890Z,20.00
2019-05-30T00:12:31.889Z,20.02
2019-05-30T00:13:31.877Z,19.95
2019-05-30T00:14:31.874Z,19.93
2019-05-30T00:15:31.865Z,19.93
2019-05-30T00:16:31.862Z,19.93
2019-05-30T00:17:31.854Z,20.02
2019-05-30T00:18:31.846Z,20.02
2019-05-30T00:19:33.986Z,20.03
2019-05-30T00:20:31.838Z,19.94
2019-05-30T00:21:31.827Z,19.94
2019-05-30T00:22:31.817Z,19.93
2019-05-30T00:23:31.809Z,19.94
2019-05-30T00:24:31.812Z,19.95
2019-05-30T00:25:31.798Z,19.90
2019-05-30T00:26:31.810Z,19.94
2019-05-30T00:27:31.789Z,19.93
2019-05-30T00:28:31.780Z,19.86
2019-05-30T00:29:31.777Z,19.95
2019-05-30T00:30:31.771Z,19.84
2019-05-30T00:31:31.776Z,19.84
2019-05-30T00:32:31.755Z,19.91
2019-05-30T00:33:31.745Z,20.00
2019-05-30T00:34:31.746Z,19.86
2019-05-30T00:35:31.735Z,19.93
2019-05-30T00:36:31.725Z,19.94
2019-05-30T00:37:31.719Z,19.91
2019-05-30T00:38:31.715Z,19.86
2019-05-30T00:39:31.707Z,19.90
2019-05-30T00:40:31.701Z,19.83
2019-05-30T00:41:31.699Z,19.88
2019-05-30T00:42:31.702Z,19.87
2019-05-30T00:43:31.685Z,19.76
2019-05-30T00:44:31.676Z,19.91
2019-05-30T00:45:31.666Z,19.87
2019-05-30T00:46:31.660Z,19.86
2019-05-30T00:47:31.669Z,19.84
2019-05-30T00:48:31.651Z,19.86
2019-05-30T00:49:31.643Z,19.80
2019-05-30T00:50:31.649Z,19.83
2019-05-30T00:51:31.628Z,19.88
2019-05-30T00:52:31.630Z,19.79
2019-05-30T00:53:31.619Z,19.79
2019-05-30T00:54:31.613Z,19.84
2019-05-30T00:55:31.614Z,19.80
2019-05-30T00:56:31.599Z,19.84
2019-05-30T00:57:31.588Z,19.84
2019-05-30T00:58:31.592Z,19.84
2019-05-30T00:59:31.578Z,19.88
2019-05-30T01:00:42.792Z,19.78
2019-05-30T01:01:31.566Z,19.72
2019-05-30T01:02:31.559Z,19.84
2019-05-30T01:03:31.550Z,19.83
2019-05-30T01:04:31.548Z,19.83
2019-05-30T01:05:31.544Z,19.76
2019-05-30T01:06:31.552Z,19.79
2019-05-30T01:07:31.527Z,19.79
2019-05-30T01:08:31.565Z,19.66
2019-05-30T01:09:31.513Z,19.78
2019-05-30T01:10:31.507Z,19.72
2019-05-30T01:11:31.500Z,19.75
2019-05-30T01:12:31.497Z,19.76
2019-05-30T01:13:31.487Z,19.84
2019-05-30T01:14:31.480Z,19.83
2019-05-30T01:15:31.472Z,19.80
2019-05-30T01:16:31.479Z,19.75
2019-05-30T01:17:31.472Z,19.76
2019-05-30T01:18:31.478Z,19.75
2019-05-30T01:19:31.447Z,19.78
2019-05-30T01:20:31.439Z,19.79
2019-05-30T01:21:31.444Z,19.75
2019-05-30T01:22:31.430Z,19.79
2019-05-30T01:23:31.420Z,19.78
2019-05-30T01:24:31.417Z,19.73
2019-05-30T01:25:31.406Z,19.79
2019-05-30T01:26:31.409Z,19.72
2019-05-30T01:27:31.396Z,19.75
2019-05-30T01:28:31.387Z,19.76
2019-05-30T01:29:31.384Z,19.76
2019-05-30T01:30:31.370Z,19.75
2019-05-30T01:31:31.370Z,19.78
2019-05-30T01:32:31.375Z,19.78
2019-05-30T01:33:31.359Z,19.73
2019-05-30T01:34:31.358Z,19.76
2019-05-30T01:35:31.342Z,19.70
2019-05-30T01:36:31.332Z,19.76
2019-05-30T01:37:31.334Z,19.80
2019-05-30T01:38:31.321Z,19.72
2019-05-30T01:39:31.314Z,19.73
2019-05-30T01:40:31.385Z,19.68
2019-05-30T01:41:31.303Z,19.70
2019-05-30T01:42:31.305Z,19.73
2019-05-30T01:43:31.290Z,19.68
2019-05-30T01:44:31.280Z,19.73
2019-05-30T01:45:31.279Z,19.65
2019-05-30T01:46:31.270Z,19.66
2019-05-30T01:47:31.271Z,19.65
2019-05-30T01:48:31.264Z,19.58
2019-05-30T01:49:31.244Z,19.63
2019-05-30T01:50:31.243Z,19.72
2019-05-30T01:51:31.242Z,19.70
2019-05-30T01:52:31.251Z,19.68
2019-05-30T01:53:31.223Z,19.69
2019-05-30T01:54:31.220Z,19.66
2019-05-30T01:55:31.213Z,19.68
2019-05-30T01:56:31.204Z,19.72
2019-05-30T01:57:31.195Z,19.66
2019-05-30T01:58:31.191Z,19.61
2019-05-30T01:59:31.180Z,19.60
2019-05-30T02:00:31.174Z,19.72
2019-05-30T02:01:31.166Z,19.69
2019-05-30T02:02:31.164Z,19.53
2019-05-30T02:03:31.155Z,19.63
2019-05-30T02:04:31.152Z,19.61
2019-05-30T02:05:31.137Z,19.65
2019-05-30T02:06:31.132Z,19.68
2019-05-30T02:07:31.126Z,19.66
2019-05-30T02:08:31.122Z,19.60
2019-05-30T02:09:31.122Z,19.63
2019-05-30T02:10:31.107Z,19.63
2019-05-30T02:11:31.103Z,19.60
2019-05-30T02:12:31.094Z,19.57
2019-05-30T02:13:31.087Z,19.58
2019-05-30T02:14:31.083Z,19.61
2019-05-30T02:15:31.075Z,19.63
2019-05-30T02:16:31.075Z,19.63
2019-05-30T02:17:31.059Z,19.69
2019-05-30T02:18:31.055Z,19.63
2019-05-30T02:19:31.044Z,19.63
2019-05-30T02:20:31.116Z,19.57
2019-05-30T02:21:31.043Z,19.65
2019-05-30T02:22:31.045Z,19.51
2019-05-30T02:23:31.019Z,19.54
2019-05-30T02:24:31.016Z,19.50
2019-05-30T02:25:31.013Z,19.61
2019-05-30T02:26:30.999Z,19.58
2019-05-30T02:27:30.992Z,19.58
2019-05-30T02:28:30.994Z,19.63
2019-05-30T02:29:30.984Z,19.58
2019-05-30T02:30:30.974Z,19.55
2019-05-30T02:31:38.833Z,19.60
2019-05-30T02:32:30.971Z,19.58
2019-05-30T02:33:30.952Z,19.54
2019-05-30T02:34:30.946Z,19.60
2019-05-30T02:35:30.941Z,19.57
2019-05-30T02:36:30.937Z,19.60
2019-05-30T02:37:30.926Z,19.58
2019-05-30T02:38:30.920Z,19.63
2019-05-30T02:39:30.912Z,19.50
2019-05-30T02:40:30.904Z,19.61
2019-05-30T02:41:30.897Z,19.58
2019-05-30T02:42:30.893Z,19.48
2019-05-30T02:43:30.894Z,19.60
2019-05-30T02:44:30.876Z,19.47
2019-05-30T02:45:30.870Z,19.54
2019-05-30T02:46:30.868Z,19.53
2019-05-30T02:47:30.861Z,19.50
2019-05-30T02:48:30.851Z,19.53
2019-05-30T02:49:30.840Z,19.43
2019-05-30T02:50:30.866Z,19.57
2019-05-30T02:51:30.834Z,19.43
2019-05-30T02:52:30.827Z,19.51
2019-05-30T02:53:30.821Z,19.36
2019-05-30T02:54:30.809Z,19.53
2019-05-30T02:55:30.810Z,19.55
2019-05-30T02:56:30.805Z,19.48
2019-05-30T02:57:30.795Z,19.42
2019-05-30T02:58:30.785Z,19.38
2019-05-30T02:59:30.778Z,19.57
2019-05-30T03:00:30.775Z,19.50
2019-05-30T03:01:30.771Z,19.57
2019-05-30T03:02:30.770Z,19.57
2019-05-30T03:03:30.762Z,19.48
2019-05-30T03:04:30.745Z,19.51
2019-05-30T03:05:30.736Z,19.54
2019-05-30T03:06:30.735Z,19.40
2019-05-30T03:07:30.725Z,19.40
2019-05-30T03:08:30.720Z,19.54
2019-05-30T03:09:30.708Z,19.48
2019-05-30T03:10:30.709Z,19.51
2019-05-30T03:11:30.696Z,19.40
2019-05-30T03:12:30.691Z,19.46
2019-05-30T03:13:30.687Z,19.51
2019-05-30T03:14:30.691Z,19.48
2019-05-30T03:15:30.668Z,19.43
2019-05-30T03:16:30.667Z,19.55
2019-05-30T03:17:30.683Z,19.40
2019-05-30T03:18:30.648Z,19.40
2019-05-30T03:19:30.641Z,19.39
2019-05-30T03:20:30.635Z,19.40
2019-05-30T03:21:30.635Z,19.48
2019-05-30T03:22:30.620Z,19.51
2019-05-30T03:23:30.615Z,19.46
2019-05-30T03:24:30.627Z,19.40
2019-05-30T03:25:30.603Z,19.43
2019-05-30T03:26:30.598Z,19.39
2019-05-30T03:27:30.587Z,19.46
2019-05-30T03:28:30.581Z,19.43
2019-05-30T03:29:30.572Z,19.42
2019-05-30T03:30:30.573Z,19.43
2019-05-30T03:31:30.786Z,19.46
2019-05-30T03:33:02.287Z,19.43
2019-05-30T03:33:38.829Z,19.46
2019-05-30T03:34:30.549Z,19.39
2019-05-30T03:35:38.810Z,19.42
2019-05-30T03:36:31.986Z,19.39
2019-05-30T03:37:30.933Z,19.42
2019-05-30T03:38:30.511Z,19.43
2019-05-30T03:39:30.506Z,19.48
2019-05-30T03:40:32.045Z,19.39
2019-05-30T03:41:30.493Z,19.43
2019-05-30T03:42:30.487Z,19.40
2019-05-30T03:43:30.477Z,19.40
2019-05-30T03:44:30.473Z,19.42
2019-05-30T03:45:30.462Z,19.47
2019-05-30T03:46:30.457Z,19.43
2019-05-30T03:47:30.455Z,19.54
2019-05-30T03:48:30.443Z,19.54
2019-05-30T03:49:30.438Z,19.60
2019-05-30T03:50:30.430Z,19.60
2019-05-30T03:51:30.428Z,19.63
2019-05-30T03:52:30.417Z,19.63
2019-05-30T03:53:30.420Z,19.65
2019-05-30T03:54:30.402Z,19.60
2019-05-30T03:55:30.427Z,19.66
2019-05-30T03:56:30.389Z,19.61
2019-05-30T03:57:30.385Z,19.63
2019-05-30T03:58:30.386Z,19.60
2019-05-30T03:59:30.375Z,19.57
2019-05-30T04:00:30.360Z,19.63
2019-05-30T04:01:30.362Z,19.57
2019-05-30T04:02:30.354Z,19.65
2019-05-30T04:03:30.367Z,19.57
2019-05-30T04:04:30.331Z,19.61
2019-05-30T04:05:30.331Z,19.60
2019-05-30T04:06:30.315Z,19.54
2019-05-30T04:07:30.309Z,19.61
2019-05-30T04:08:30.304Z,19.58
2019-05-30T04:09:30.301Z,19.61
2019-05-30T04:10:30.304Z,19.68
2019-05-30T04:11:30.312Z,19.70
2019-05-30T04:12:30.285Z,19.78
2019-05-30T04:13:30.296Z,19.69
2019-05-30T04:14:30.271Z,19.78
2019-05-30T04:15:30.259Z,19.72
2019-05-30T04:16:30.245Z,19.70
2019-05-30T04:17:30.245Z,19.75
2019-05-30T04:18:30.239Z,19.80
2019-05-30T04:19:30.230Z,19.68
2019-05-30T04:20:30.223Z,19.72
2019-05-30T04:21:30.210Z,19.69
2019-05-30T04:22:30.210Z,19.70
2019-05-30T04:23:30.202Z,19.70
2019-05-30T04:24:30.193Z,19.61
2019-05-30T04:25:30.184Z,19.73
2019-05-30T04:26:30.176Z,19.75
2019-05-30T04:27:30.172Z,19.69
2019-05-30T04:28:30.175Z,19.65
2019-05-30T04:29:30.155Z,19.68
2019-05-30T04:30:30.147Z,19.65
2019-05-30T04:31:30.150Z,19.63
2019-05-30T04:32:30.145Z,19.68
2019-05-30T04:33:33.390Z,19.58
2019-05-30T04:34:30.119Z,19.51
2019-05-30T04:35:30.121Z,19.63
2019-05-30T04:36:30.113Z,19.66
2019-05-30T04:37:30.109Z,19.69
2019-05-30T04:38:30.094Z,19.73
2019-05-30T04:39:30.095Z,19.72
2019-05-30T04:40:30.078Z,19.75
2019-05-30T04:41:30.085Z,19.75
2019-05-30T04:42:30.068Z,19.73
2019-05-30T04:43:30.070Z,19.70
2019-05-30T04:44:30.058Z,19.72
2019-05-30T04:45:30.058Z,19.70
2019-05-30T04:46:30.037Z,19.78
2019-05-30T04:47:30.107Z,19.70
2019-05-30T04:48:30.034Z,19.73
2019-05-30T04:49:30.065Z,19.69
2019-05-30T04:50:30.014Z,19.69
2019-05-30T04:51:29.999Z,19.73
2019-05-30T04:52:29.996Z,19.70
2019-05-30T04:53:29.991Z,19.72
2019-05-30T04:54:29.987Z,19.73
2019-05-30T04:55:29.974Z,19.75
2019-05-30T04:56:29.968Z,19.76
2019-05-30T04:57:29.962Z,19.78
2019-05-30T04:58:29.957Z,19.75
2019-05-30T04:59:29.948Z,19.69
2019-05-30T05:00:29.952Z,19.68
2019-05-30T05:01:29.932Z,19.65
2019-05-30T05:02:29.927Z,19.78
2019-05-30T05:03:45.131Z,19.70
2019-05-30T05:04:29.910Z,19.69
2019-05-30T05:05:29.923Z,19.72
2019-05-30T05:06:29.920Z,19.68
2019-05-30T05:07:29.893Z,19.70
2019-05-30T05:08:29.897Z,19.66
2019-05-30T05:09:29.879Z,19.73
2019-05-30T05:10:29.869Z,19.63
2019-05-30T05:11:29.861Z,19.73
2019-05-30T05:12:29.859Z,19.63
2019-05-30T05:13:29.848Z,19.70
2019-05-30T05:14:29.840Z,19.60
2019-05-30T05:15:29.833Z,19.68
2019-05-30T05:16:35.319Z,19.78
2019-05-30T05:17:29.827Z,19.79
2019-05-30T05:18:29.812Z,19.80
2019-05-30T05:19:29.809Z,19.75
2019-05-30T05:20:29.805Z,19.78
2019-05-30T05:21:29.796Z,19.76
2019-05-30T05:22:29.801Z,19.80
2019-05-30T05:23:29.780Z,19.79
2019-05-30T05:24:29.772Z,19.78
2019-05-30T05:25:29.764Z,19.78
2019-05-30T05:26:29.763Z,19.76
2019-05-30T05:27:29.759Z,19.73
2019-05-30T05:28:29.743Z,19.72
2019-05-30T05:29:29.742Z,19.76
2019-05-30T05:30:29.729Z,19.78
2019-05-30T05:31:29.728Z,19.72
2019-05-30T05:32:29.715Z,19.73
2019-05-30T05:33:29.707Z,19.73
2019-05-30T05:34:29.701Z,19.73
2019-05-30T05:35:29.697Z,19.72
2019-05-30T05:36:29.689Z,19.76
2019-05-30T05:37:29.690Z,19.80
2019-05-30T05:38:29.677Z,19.76
2019-05-30T05:39:29.670Z,19.78
2019-05-30T05:40:29.667Z,19.69
2019-05-30T05:41:29.657Z,19.76
2019-05-30T05:42:30.306Z,19.70
2019-05-30T05:43:29.642Z,19.75
2019-05-30T05:44:29.634Z,19.70
2019-05-30T05:45:29.630Z,19.72
2019-05-30T05:46:29.620Z,19.72
2019-05-30T05:47:29.621Z,19.76
2019-05-30T05:48:29.606Z,19.73
2019-05-30T05:49:29.608Z,19.78
2019-05-30T05:50:29.602Z,19.76
2019-05-30T05:51:29.589Z,19.75
2019-05-30T05:52:29.585Z,19.78
2019-05-30T05:53:29.573Z,19.73
2019-05-30T05:54:29.580Z,19.75
2019-05-30T05:55:29.558Z,19.78
2019-05-30T05:56:29.553Z,19.68
2019-05-30T05:57:29.580Z,19.73
2019-05-30T05:58:29.539Z,19.69
2019-05-30T05:59:29.536Z,19.76
2019-05-30T06:00:29.676Z,19.80
2019-05-30T06:01:30.089Z,19.76
2019-05-30T06:02:29.510Z,19.75
2019-05-30T06:03:29.504Z,19.78
2019-05-30T06:04:29.502Z,19.86
2019-05-30T06:05:29.493Z,19.83
2019-05-30T06:06:31.515Z,19.76
2019-05-30T06:07:29.484Z,19.80
2019-05-30T06:08:29.473Z,19.83
2019-05-30T06:09:29.464Z,19.83
2019-05-30T06:10:29.457Z,19.78
2019-05-30T06:11:29.455Z,19.76
2019-05-30T06:12:29.444Z,19.83
2019-05-30T06:13:29.435Z,19.83
2019-05-30T06:14:29.431Z,19.87
2019-05-30T06:15:29.429Z,19.72
2019-05-30T06:16:29.422Z,19.80
2019-05-30T06:17:29.425Z,19.72
2019-05-30T06:18:29.403Z,19.78
2019-05-30T06:19:44.988Z,19.83
2019-05-30T06:20:29.416Z,19.87
2019-05-30T06:21:29.384Z,19.79
2019-05-30T06:22:29.385Z,19.75
2019-05-30T06:23:29.379Z,19.69
2019-05-30T06:24:29.371Z,19.69
2019-05-30T06:25:32.526Z,19.76
2019-05-30T06:26:29.351Z,19.72
2019-05-30T06:27:29.357Z,19.73
2019-05-30T06:28:29.344Z,19.72
2019-05-30T06:29:29.330Z,19.76
2019-05-30T06:30:29.326Z,19.78
2019-05-30T06:31:29.325Z,19.87
2019-05-30T06:32:29.314Z,19.91
2019-05-30T06:33:29.304Z,19.88
2019-05-30T06:34:39.015Z,19.86
2019-05-30T06:35:29.557Z,19.88
2019-05-30T06:36:29.377Z,19.84
2019-05-30T06:37:29.388Z,19.84
2019-05-30T06:38:29.494Z,19.80
2019-05-30T06:39:29.674Z,19.86
2019-05-30T06:40:30.919Z,19.80
2019-05-30T06:41:29.836Z,19.87
2019-05-30T06:42:30.320Z,19.83
2019-05-30T06:43:30.320Z,19.87
2019-05-30T06:44:30.234Z,19.86
2019-05-30T06:45:30.305Z,19.80
2019-05-30T06:46:30.469Z,19.84
2019-05-30T06:47:30.465Z,19.84
2019-05-30T06:48:29.216Z,19.76
2019-05-30T06:49:29.218Z,19.78
2019-05-30T06:50:29.226Z,19.75
2019-05-30T06:51:29.210Z,19.75
2019-05-30T06:52:29.246Z,19.79
2019-05-30T06:53:29.423Z,19.84
2019-05-30T06:54:29.645Z,19.72
2019-05-30T06:55:29.546Z,19.73
2019-05-30T06:56:29.492Z,19.76
2019-05-30T06:57:29.371Z,19.79
2019-05-30T06:58:47.561Z,19.73
2019-05-30T06:59:29.781Z,19.76
2019-05-30T07:00:29.883Z,19.73
2019-05-30T07:01:30.093Z,19.80
2019-05-30T07:02:30.344Z,19.73
2019-05-30T07:03:30.429Z,19.79
2019-05-30T07:04:34.494Z,19.72
2019-05-30T07:05:30.573Z,19.73
2019-05-30T07:06:29.678Z,19.75
2019-05-30T07:07:29.383Z,19.75
2019-05-30T07:08:29.083Z,19.83
2019-05-30T07:09:29.227Z,19.83
2019-05-30T07:10:29.077Z,19.76
2019-05-30T07:11:29.411Z,19.78
2019-05-30T07:12:29.076Z,19.80
2019-05-30T07:13:29.274Z,19.83
2019-05-30T07:14:29.355Z,19.84
2019-05-30T07:15:29.288Z,19.84
2019-05-30T07:16:29.547Z,19.88
2019-05-30T07:17:29.524Z,19.87
2019-05-30T07:18:33.185Z,19.86
2019-05-30T07:19:29.537Z,19.87
2019-05-30T07:20:29.669Z,19.88
2019-05-30T07:21:29.762Z,19.84
2019-05-30T07:22:29.735Z,19.76
2019-05-30T07:23:30.125Z,19.88
2019-05-30T07:24:29.836Z,19.76
2019-05-30T07:25:29.904Z,19.80
2019-05-30T07:26:29.849Z,19.87
2019-05-30T07:27:29.923Z,19.86
2019-05-30T07:28:29.938Z,19.87
2019-05-30T07:29:29.973Z,19.87
2019-05-30T07:30:30.002Z,19.84
2019-05-30T07:31:30.093Z,19.79
2019-05-30T07:32:29.941Z,19.83
2019-05-30T07:33:30.126Z,19.80
2019-05-30T07:34:30.077Z,19.88
2019-05-30T07:35:29.974Z,19.84
2019-05-30T07:36:30.233Z,19.83
2019-05-30T07:37:28.899Z,19.88
2019-05-30T07:38:28.990Z,19.86
2019-05-30T07:39:32.816Z,19.90
2019-05-30T07:40:28.946Z,19.90
2019-05-30T07:41:28.888Z,19.87
2019-05-30T07:42:28.937Z,19.80
2019-05-30T07:43:30.273Z,19.86
2019-05-30T07:44:28.984Z,19.78
2019-05-30T07:45:29.063Z,19.79
2019-05-30T07:46:28.985Z,19.84
2019-05-30T07:47:29.900Z,19.86
2019-05-30T07:48:30.102Z,19.84
2019-05-30T07:49:28.826Z,19.86
2019-05-30T07:50:28.869Z,19.75
2019-05-30T07:51:28.813Z,19.83
2019-05-30T07:52:28.853Z,19.86
2019-05-30T07:53:28.795Z,19.79
2019-05-30T07:54:28.897Z,19.79
2019-05-30T07:55:28.950Z,19.83
2019-05-30T07:56:28.943Z,19.88
2019-05-30T07:57:28.772Z,19.84
2019-05-30T07:58:29.078Z,19.86
2019-05-30T07:59:28.757Z,19.75
2019-05-30T08:00:29.287Z,19.84
2019-05-30T08:01:28.749Z,19.75
2019-05-30T08:02:29.578Z,19.90
2019-05-30T08:03:28.738Z,19.84
2019-05-30T08:04:29.479Z,19.88
2019-05-30T08:05:28.745Z,19.84
2019-05-30T08:06:29.530Z,19.79
2019-05-30T08:07:28.707Z,19.90
2019-05-30T08:08:29.756Z,19.84
2019-05-30T08:09:29.219Z,19.84
2019-05-30T08:10:29.820Z,19.84
2019-05-30T08:11:29.292Z,19.87
2019-05-30T08:12:29.989Z,19.80
2019-05-30T08:13:29.032Z,19.86
2019-05-30T08:14:29.014Z,19.88
2019-05-30T08:15:29.247Z,19.88
2019-05-30T08:16:29.174Z,19.86
2019-05-30T08:17:29.505Z,19.86
2019-05-30T08:18:29.490Z,19.83
2019-05-30T08:19:29.664Z,19.80
2019-05-30T08:20:29.633Z,19.83
2019-05-30T08:21:29.768Z,19.87
2019-05-30T08:22:29.857Z,19.86
2019-05-30T08:23:28.613Z,19.94
2019-05-30T08:24:28.627Z,19.86
2019-05-30T08:25:28.598Z,19.86
2019-05-30T08:26:28.592Z,19.88
2019-05-30T08:27:28.585Z,19.86
2019-05-30T08:28:28.860Z,19.98
2019-05-30T08:29:28.580Z,19.86
2019-05-30T08:30:28.574Z,19.84
2019-05-30T08:31:28.675Z,19.88
2019-05-30T08:32:28.698Z,19.84
2019-05-30T08:33:29.535Z,19.91
2019-05-30T08:34:28.548Z,19.94
2019-05-30T08:35:41.144Z,19.93
2019-05-30T08:36:28.804Z,19.98
2019-05-30T08:37:28.969Z,19.80
2019-05-30T08:38:28.977Z,19.98
2019-05-30T08:39:28.958Z,19.93
2019-05-30T08:40:29.135Z,19.93
2019-05-30T08:41:29.097Z,19.94
2019-05-30T08:42:29.510Z,19.93
2019-05-30T08:43:29.263Z,19.97
2019-05-30T08:44:29.394Z,19.97
2019-05-30T08:45:29.558Z,19.95
2019-05-30T08:46:30.119Z,20.00
2019-05-30T08:47:29.717Z,19.94
2019-05-30T08:48:29.630Z,19.94
2019-05-30T08:49:28.463Z,19.95
2019-05-30T08:50:28.445Z,19.97
2019-05-30T08:51:28.439Z,20.00
2019-05-30T08:52:28.450Z,19.98
2019-05-30T08:53:28.444Z,19.95
2019-05-30T08:54:28.422Z,19.95
2019-05-30T08:55:28.424Z,19.91
2019-05-30T08:56:28.674Z,19.95
2019-05-30T08:57:28.413Z,19.91
2019-05-30T08:58:28.398Z,19.95
2019-05-30T08:59:28.399Z,19.95
2019-05-30T09:00:28.406Z,19.91
2019-05-30T09:01:28.382Z,20.00
2019-05-30T09:02:28.373Z,19.95
2019-05-30T09:03:28.376Z,20.05
2019-05-30T09:04:28.374Z,20.08
2019-05-30T09:05:28.371Z,20.08
2019-05-30T09:06:28.360Z,19.91
2019-05-30T09:07:31.385Z,20.08
2019-05-30T09:08:28.347Z,20.03
2019-05-30T09:09:28.417Z,20.10
2019-05-30T09:10:28.352Z,20.21
2019-05-30T09:11:28.326Z,20.27
2019-05-30T09:12:28.341Z,20.18
2019-05-30T09:13:28.314Z,20.34
2019-05-30T09:14:28.303Z,20.38
2019-05-30T09:15:28.297Z,20.24
2019-05-30T09:16:28.342Z,20.24
2019-05-30T09:17:28.287Z,20.25
2019-05-30T09:18:28.279Z,20.27
2019-05-30T09:19:28.342Z,20.30
2019-05-30T09:20:30.772Z,20.42
2019-05-30T09:21:28.261Z,20.43
2019-05-30T19:11:37.001Z,21.38
2019-05-30T19:12:36.543Z,21.41
2019-05-30T19:13:35.597Z,21.38
2019-05-30T19:14:37.314Z,21.35
2019-05-30T19:15:35.579Z,21.44
2019-05-30T19:16:37.034Z,21.42
2019-05-30T19:17:35.995Z,21.41
2019-05-30T19:18:35.778Z,21.44
2019-05-30T19:19:36.010Z,21.41
2019-05-30T19:20:35.834Z,21.50
2019-05-30T19:21:36.185Z,21.45
2019-05-30T19:22:36.411Z,21.54
2019-05-30T19:23:39.541Z,21.51
2019-05-30T19:24:35.552Z,21.53
2019-05-30T19:25:35.672Z,21.53
2019-05-30T19:26:36.599Z,21.46
2019-05-30T19:27:37.997Z,21.48
2019-05-30T19:28:36.625Z,21.46
2019-05-30T19:29:35.501Z,21.54
2019-05-30T19:30:36.843Z,21.50
2019-05-30T19:31:36.836Z,21.57
2019-05-30T19:32:36.843Z,21.48
2019-05-30T19:33:35.596Z,21.45
2019-05-30T19:34:35.478Z,21.51
2019-05-30T19:35:35.468Z,21.50
2019-05-30T19:36:35.464Z,21.45
2019-05-30T19:37:35.470Z,21.61
2019-05-30T19:38:35.538Z,21.50
2019-05-30T19:39:35.753Z,21.56
2019-05-30T19:40:35.844Z,21.59
2019-05-30T19:41:45.610Z,21.64
2019-05-30T19:42:35.636Z,21.57
2019-05-30T19:43:35.919Z,21.61
2019-05-30T19:44:38.912Z,21.64
2019-05-30T19:45:36.164Z,21.63
2019-05-30T19:46:36.212Z,21.63
2019-05-30T19:47:36.591Z,21.60
2019-05-30T19:48:36.486Z,21.66
2019-05-30T19:49:36.796Z,21.59
2019-05-30T19:50:35.677Z,21.61
2019-05-30T19:51:35.390Z,21.66
2019-05-30T21:18:30.259Z,21.95
2019-05-30T21:19:29.754Z,21.99
2019-05-30T21:20:29.736Z,21.98
2019-05-30T21:21:29.820Z,22.01
2019-05-30T21:22:29.735Z,21.99
2019-05-30T21:23:29.715Z,22.02
2019-05-30T21:24:29.707Z,21.99
2019-05-30T21:25:29.703Z,22.01
2019-05-30T21:26:29.709Z,21.97
2019-05-30T21:27:29.690Z,21.95
2019-05-30T21:28:29.688Z,22.06
2019-05-30T21:29:29.678Z,22.02
2019-05-30T21:30:29.671Z,21.97
2019-05-30T21:31:29.691Z,21.91
2019-05-30T21:32:29.663Z,22.02
2019-05-30T21:33:29.709Z,22.07
2019-05-30T21:34:29.676Z,22.01
2019-05-30T21:35:29.658Z,22.04
2019-05-30T21:36:29.683Z,21.88
2019-05-30T21:37:29.637Z,21.99
2019-05-30T21:38:29.708Z,21.98
2019-05-30T21:39:29.717Z,21.95
2019-05-30T21:40:29.618Z,21.81
2019-05-30T21:41:29.622Z,21.78
2019-05-30T21:42:29.607Z,21.74
2019-05-30T21:43:29.603Z,21.75
2019-05-30T21:44:32.728Z,21.69
2019-05-30T21:45:29.598Z,21.76
2019-05-30T21:46:31.594Z,21.71
2019-05-30T21:47:29.583Z,21.74
2019-05-30T21:48:29.584Z,21.71
2019-05-30T21:49:29.576Z,21.66
2019-05-30T21:50:29.571Z,21.74
2019-05-30T21:51:29.563Z,21.72
2019-05-30T21:52:29.555Z,21.61
2019-05-30T21:53:29.553Z,21.64
2019-05-30T21:54:29.544Z,21.67
2019-05-30T21:55:29.548Z,21.60
2019-05-30T21:56:29.532Z,21.64
2019-05-30T21:57:29.533Z,21.69
2019-05-30T21:58:29.525Z,21.64
2019-05-30T21:59:29.518Z,21.63
2019-05-30T22:00:29.513Z,21.66
2019-05-30T22:01:29.529Z,21.66
2019-05-30T22:02:29.507Z,21.57
2019-05-30T22:03:29.500Z,21.64
2019-05-30T22:04:29.491Z,21.60
2019-05-30T22:05:29.490Z,21.57
2019-05-30T22:06:29.481Z,21.51
2019-05-30T22:07:29.490Z,21.57
2019-05-30T22:08:29.470Z,21.51
2019-05-30T22:09:29.477Z,21.59
2019-05-30T22:10:29.471Z,21.50
2019-05-30T22:11:29.457Z,21.53
2019-05-30T22:12:29.450Z,21.48
2019-05-30T22:13:29.452Z,21.50
2019-05-30T22:14:29.443Z,21.56
2019-05-30T22:15:29.441Z,21.46
2019-05-30T22:16:29.434Z,21.53
2019-05-30T22:17:29.426Z,21.50
2019-05-30T22:18:29.417Z,21.51
2019-05-30T22:19:29.414Z,21.45
2019-05-30T22:20:29.413Z,21.51
2019-05-30T22:21:29.401Z,21.45
2019-05-30T22:22:29.397Z,21.48
2019-05-30T22:23:29.394Z,21.53
2019-05-30T22:24:29.385Z,21.48
2019-05-30T22:25:29.381Z,21.42
2019-05-30T22:26:29.380Z,21.56
2019-05-30T22:27:29.370Z,21.56
2019-05-30T22:28:29.363Z,21.44
2019-05-30T22:29:29.357Z,21.44
2019-05-30T22:30:29.353Z,21.42
2019-05-30T22:31:29.347Z,21.42
2019-05-30T22:32:29.343Z,21.38
2019-05-30T22:33:29.343Z,21.46
2019-05-30T22:34:29.331Z,21.41
2019-05-30T22:35:29.335Z,21.39
2019-05-30T22:36:29.322Z,21.39
2019-05-30T22:37:29.317Z,21.35
2019-05-30T22:38:29.307Z,21.36
2019-05-30T22:39:29.300Z,21.36
2019-05-30T22:40:29.298Z,21.42
2019-05-30T22:41:29.297Z,21.35
2019-05-30T22:42:29.289Z,21.32
2019-05-30T22:43:29.283Z,21.38
2019-05-30T22:44:29.279Z,21.34
2019-05-30T22:45:29.270Z,21.35
2019-05-30T22:46:29.262Z,21.30
2019-05-30T22:47:29.262Z,21.30
2019-05-30T22:48:29.256Z,21.26
2019-05-30T22:49:29.283Z,21.24
2019-05-30T22:50:29.240Z,21.26
2019-05-30T22:51:29.259Z,21.27
2019-05-30T22:52:29.232Z,21.26
2019-05-30T22:53:29.233Z,21.27
2019-05-30T22:54:29.220Z,21.35
2019-05-30T22:55:29.216Z,21.29
2019-05-30T22:56:29.220Z,21.24
2019-05-30T22:57:29.206Z,21.24
2019-05-30T22:58:29.197Z,21.30
2019-05-30T22:59:29.192Z,21.24
2019-05-30T23:00:29.189Z,21.20
2019-05-30T23:01:29.191Z,21.32
2019-05-30T23:02:29.175Z,21.27
2019-05-30T23:03:29.169Z,21.32
2019-05-30T23:04:29.206Z,21.26
2019-05-30T23:05:29.165Z,21.14
2019-05-30T23:06:29.155Z,21.23
2019-05-30T23:07:29.164Z,21.27
2019-05-30T23:08:29.142Z,21.27
2019-05-30T23:09:29.145Z,21.24
2019-05-30T23:10:29.128Z,21.24
2019-05-30T23:11:29.128Z,21.23
2019-05-30T23:12:29.120Z,21.24
2019-05-30T23:13:39.987Z,21.21
2019-05-30T23:14:29.112Z,21.23
2019-05-30T23:15:29.102Z,21.20
2019-05-30T23:16:29.098Z,21.20
2019-05-30T23:17:29.098Z,21.19
2019-05-30T23:18:29.085Z,21.16
2019-05-30T23:19:29.083Z,21.16
2019-05-30T23:20:29.090Z,21.19
2019-05-30T23:21:29.074Z,21.21
2019-05-30T23:22:29.060Z,21.20
2019-05-30T23:23:29.060Z,21.21
2019-05-30T23:24:29.049Z,21.16
2019-05-30T23:25:29.046Z,21.20
2019-05-30T23:26:29.037Z,21.11
2019-05-30T23:27:29.033Z,21.16
2019-05-30T23:28:29.035Z,21.16
2019-05-30T23:29:29.027Z,21.11
2019-05-30T23:30:29.014Z,21.16
2019-05-30T23:31:29.088Z,21.17
2019-05-30T23:32:29.011Z,21.16
2019-05-30T23:33:29.003Z,21.19
2019-05-30T23:34:28.995Z,21.19
2019-05-30T23:35:28.989Z,21.17
2019-05-30T23:36:28.988Z,21.19
2019-05-30T23:37:28.974Z,21.17
2019-05-30T23:38:28.967Z,21.11
2019-05-30T23:39:28.963Z,21.09
2019-05-30T23:40:28.957Z,21.13
2019-05-30T23:41:28.955Z,21.19
2019-05-30T23:42:28.949Z,21.14
2019-05-30T23:43:28.939Z,21.08
2019-05-30T23:44:28.941Z,21.08
2019-05-30T23:45:28.935Z,21.08
2019-05-30T23:46:28.922Z,21.16
2019-05-30T23:47:29.039Z,21.08
2019-05-30T23:48:28.917Z,21.13
2019-05-30T23:49:28.906Z,21.11
2019-05-30T23:50:28.900Z,21.13
2019-05-30T23:51:28.893Z,21.08
2019-05-30T23:52:28.906Z,21.13
2019-05-30T23:53:28.891Z,21.11
2019-05-30T23:54:28.873Z,21.11
2019-05-30T23:55:28.870Z,21.09
2019-05-30T23:56:28.868Z,21.13
2019-05-30T23:57:28.856Z,21.06
2019-05-30T23:58:28.858Z,21.06
2019-05-30T23:59:28.843Z,21.06
